createdAt,value
2018-06-05T00:01:06.064Z,26.86
2018-06-05T00:03:34.352Z,31.20
2018-06-05T00:06:02.665Z,24.36
2018-06-05T00:08:30.982Z,26.52
2018-06-05T00:10:59.296Z,21.44
2018-06-05T00:13:26.845Z,25.46
2018-06-05T00:15:55.167Z,23.76
2018-06-05T00:18:22.672Z,30.06
2018-06-05T00:20:50.975Z,24.28
2018-06-05T00:23:19.277Z,23.60
2018-06-05T00:25:50.859Z,27.34
2018-06-05T00:28:19.165Z,28.40
2018-06-05T00:30:47.429Z,28.64
2018-06-05T00:33:15.683Z,27.80
2018-06-05T00:35:43.979Z,29.02
2018-06-05T00:38:12.255Z,30.30
2018-06-05T00:40:44.269Z,27.02
2018-06-05T00:43:12.575Z,25.64
2018-06-05T00:45:41.805Z,26.74
2018-06-05T00:48:10.101Z,31.08
2018-06-05T00:50:48.581Z,27.26
2018-06-05T00:53:16.880Z,26.30
2018-06-05T00:55:45.195Z,31.40
2018-06-05T00:58:13.516Z,28.06
2018-06-05T01:00:41.813Z,25.40
2018-06-05T01:03:10.077Z,28.98
2018-06-05T01:05:40.213Z,28.50
2018-06-05T01:08:09.407Z,28.62
2018-06-05T01:10:38.662Z,26.82
2018-06-05T01:13:06.957Z,26.64
2018-06-05T01:15:36.664Z,25.82
2018-06-05T01:18:04.235Z,28.00
2018-06-05T01:20:32.523Z,23.46
2018-06-05T01:23:00.966Z,27.50
2018-06-05T01:25:29.279Z,28.60
2018-06-05T01:27:56.819Z,28.12
2018-06-05T01:30:25.105Z,31.52
2018-06-05T01:32:53.405Z,26.54
2018-06-05T01:35:21.706Z,29.78
2018-06-05T01:37:50.024Z,31.10
2018-06-05T01:40:18.290Z,26.82
2018-06-05T01:42:46.567Z,28.88
2018-06-05T01:45:14.860Z,24.98
2018-06-05T01:47:43.169Z,28.80
2018-06-05T01:50:11.470Z,26.52
2018-06-05T01:52:39.753Z,30.16
2018-06-05T01:55:08.932Z,25.30
2018-06-05T01:57:37.880Z,32.18
2018-06-05T02:00:06.201Z,29.48
2018-06-05T02:02:35.580Z,31.38
2018-06-05T02:05:04.801Z,28.66
2018-06-05T02:07:33.849Z,24.10
2018-06-05T02:10:05.378Z,25.66
2018-06-05T02:12:34.678Z,29.30
2018-06-05T02:15:03.000Z,29.82
2018-06-05T02:17:31.282Z,29.02
2018-06-05T02:19:59.551Z,27.42
2018-06-05T02:22:29.768Z,25.88
2018-06-05T02:24:58.088Z,34.60
2018-06-05T02:27:26.431Z,31.04
2018-06-05T02:29:54.716Z,28.48
2018-06-05T02:32:23.021Z,32.74
2018-06-05T02:34:51.364Z,32.80
2018-06-05T02:37:20.619Z,33.18
2018-06-05T02:39:48.892Z,29.84
2018-06-05T02:42:17.432Z,27.28
2018-06-05T02:44:45.752Z,29.14
2018-06-05T02:47:15.017Z,32.56
2018-06-05T02:49:43.324Z,24.92
2018-06-05T02:52:11.634Z,31.64
2018-06-05T02:54:39.938Z,26.00
2018-06-05T02:57:10.165Z,25.98
2018-06-05T02:59:39.457Z,25.12
2018-06-05T03:02:09.172Z,23.94
2018-06-05T03:04:38.980Z,24.00
2018-06-05T03:07:07.297Z,26.00
2018-06-05T03:09:39.233Z,24.60
2018-06-05T03:12:08.461Z,20.86
2018-06-05T03:14:36.770Z,28.06
2018-06-05T03:17:06.348Z,25.24
2018-06-05T03:19:35.823Z,28.48
2018-06-05T03:22:03.791Z,26.08
2018-06-05T03:24:38.245Z,25.04
2018-06-05T03:27:06.514Z,25.84
2018-06-05T03:29:35.767Z,25.62
2018-06-05T03:32:05.251Z,24.96
2018-06-05T03:34:34.176Z,25.30
2018-06-05T03:37:06.035Z,27.54
2018-06-05T03:39:34.322Z,29.14
2018-06-05T03:42:09.299Z,25.14
2018-06-05T03:44:38.820Z,29.60
2018-06-05T03:47:07.989Z,29.80
2018-06-05T03:49:36.297Z,28.26
2018-06-05T03:52:05.493Z,30.30
2018-06-05T03:54:33.839Z,26.50
2018-06-05T03:57:02.112Z,28.42
2018-06-05T03:59:30.421Z,30.28
2018-06-05T04:01:58.708Z,24.36
2018-06-05T04:04:26.298Z,27.70
2018-06-05T04:06:54.534Z,22.30
2018-06-05T04:09:22.805Z,23.52
2018-06-05T04:11:51.106Z,29.38
2018-06-05T04:14:19.373Z,24.48
2018-06-05T04:16:47.667Z,26.32
2018-06-05T04:19:16.165Z,27.84
2018-06-05T04:21:45.413Z,32.00
2018-06-05T04:24:13.713Z,31.38
2018-06-05T04:26:41.986Z,28.90
2018-06-05T04:29:10.298Z,27.96
2018-06-05T04:31:39.539Z,29.36
2018-06-05T04:34:08.326Z,33.50
2018-06-05T04:36:39.717Z,28.30
2018-06-05T04:39:08.841Z,32.10
2018-06-05T04:41:37.935Z,34.04
2018-06-05T04:44:06.257Z,31.22
2018-06-05T04:46:35.494Z,31.88
2018-06-05T04:49:03.893Z,33.76
2018-06-05T04:51:32.164Z,30.52
2018-06-05T04:54:00.432Z,34.92
2018-06-05T04:56:29.683Z,34.00
2018-06-05T04:58:57.947Z,31.92
2018-06-05T05:01:28.235Z,39.08
2018-06-05T05:03:56.512Z,37.08
2018-06-05T05:06:24.803Z,40.24
2018-06-05T05:08:53.137Z,42.80
2018-06-05T05:11:21.405Z,46.98
2018-06-05T05:13:51.671Z,42.82
2018-06-05T05:16:20.011Z,36.82
2018-06-05T05:18:49.263Z,39.48
2018-06-05T05:21:17.569Z,42.42
2018-06-05T05:23:45.854Z,42.30
2018-06-05T05:26:14.145Z,40.12
2018-06-05T05:28:42.458Z,50.40
2018-06-05T05:31:10.745Z,42.24
2018-06-05T05:33:46.251Z,41.58
2018-06-05T05:36:14.529Z,45.20
2018-06-05T05:38:43.775Z,46.60
2018-06-05T05:41:12.084Z,42.10
2018-06-05T05:43:39.614Z,42.92
2018-06-05T05:46:08.639Z,47.74
2018-06-05T05:48:39.740Z,38.56
2018-06-05T05:51:08.954Z,40.34
2018-06-05T05:53:40.700Z,39.04
2018-06-05T05:56:10.236Z,40.34
2018-06-05T05:58:39.737Z,33.34
2018-06-05T06:01:09.074Z,38.48
2018-06-05T06:03:40.973Z,36.30
2018-06-05T06:06:09.920Z,36.88
2018-06-05T06:08:39.197Z,34.02
2018-06-05T06:11:07.507Z,37.38
2018-06-05T06:13:35.068Z,37.32
2018-06-05T06:16:03.345Z,40.50
2018-06-05T06:18:31.662Z,36.00
2018-06-05T06:20:59.933Z,36.18
2018-06-05T06:23:28.188Z,43.22
2018-06-05T06:25:56.506Z,37.96
2018-06-05T06:28:24.759Z,36.28
2018-06-05T06:30:53.062Z,37.06
2018-06-05T06:33:21.343Z,34.46
2018-06-05T06:35:49.670Z,33.38
2018-06-05T06:38:17.945Z,35.34
2018-06-05T06:40:46.223Z,37.62
2018-06-05T06:43:15.267Z,34.94
2018-06-05T06:45:44.253Z,29.96
2018-06-05T06:48:12.552Z,32.26
2018-06-05T06:50:40.835Z,31.50
2018-06-05T06:53:09.982Z,26.80
2018-06-05T06:55:38.284Z,29.52
2018-06-05T06:58:06.590Z,29.50
2018-06-05T07:00:34.890Z,32.06
2018-06-05T07:03:03.225Z,37.26
2018-06-05T07:05:31.520Z,29.76
2018-06-05T07:07:59.789Z,29.66
2018-06-05T07:10:28.083Z,28.08
2018-06-05T07:12:56.369Z,29.30
2018-06-05T07:15:24.683Z,28.18
2018-06-05T07:17:52.971Z,33.12
2018-06-05T07:20:21.281Z,33.22
2018-06-05T07:22:49.564Z,29.68
2018-06-05T07:25:39.240Z,32.52
2018-06-05T07:28:07.509Z,29.98
2018-06-05T07:30:39.561Z,26.06
2018-06-05T07:33:08.415Z,31.60
2018-06-05T07:35:46.976Z,25.40
2018-06-05T07:38:16.078Z,28.02
2018-06-05T07:40:45.261Z,28.72
2018-06-05T07:43:14.553Z,31.72
2018-06-05T07:45:42.839Z,25.36
2018-06-05T07:48:11.146Z,28.96
2018-06-05T07:50:45.289Z,28.58
2018-06-05T07:53:14.733Z,30.18
2018-06-05T07:55:43.010Z,28.68
2018-06-05T07:58:12.277Z,28.42
2018-06-05T08:00:40.577Z,27.96
2018-06-05T08:03:09.697Z,25.92
2018-06-05T08:05:38.010Z,29.62
2018-06-05T08:08:06.282Z,27.50
2018-06-05T08:10:34.586Z,29.42
2018-06-05T08:13:02.868Z,29.60
2018-06-05T08:15:31.181Z,27.52
2018-06-05T08:17:59.446Z,25.82
2018-06-05T08:20:27.721Z,27.60
2018-06-05T08:22:56.030Z,26.98
2018-06-05T08:25:24.319Z,27.36
2018-06-05T08:27:52.594Z,28.30
2018-06-05T08:30:20.897Z,26.84
2018-06-05T08:32:49.172Z,25.30
2018-06-05T08:35:17.447Z,20.70
2018-06-05T08:37:45.809Z,24.46
2018-06-05T08:40:14.967Z,25.26
2018-06-05T08:42:42.466Z,27.52
2018-06-05T08:45:10.809Z,22.18
2018-06-05T08:47:39.057Z,23.36
2018-06-05T08:50:10.798Z,27.66
2018-06-05T08:52:39.070Z,23.86
2018-06-05T08:55:07.357Z,29.86
2018-06-05T08:57:35.657Z,27.34
2018-06-05T09:00:03.974Z,27.02
2018-06-05T09:02:32.253Z,27.04
2018-06-05T09:05:00.556Z,25.90
2018-06-05T09:07:28.065Z,22.36
2018-06-05T09:09:56.369Z,25.66
2018-06-05T09:12:24.637Z,30.98
2018-06-05T09:14:52.947Z,25.94
2018-06-05T09:17:20.450Z,24.94
2018-06-05T09:19:48.757Z,28.34
2018-06-05T09:22:17.043Z,27.68
2018-06-05T09:24:45.843Z,30.00
2018-06-05T09:27:15.177Z,25.82
2018-06-05T09:29:43.844Z,26.82
2018-06-05T09:32:12.142Z,24.18
2018-06-05T09:34:40.413Z,27.68
2018-06-05T09:37:08.640Z,24.42
2018-06-05T09:39:36.980Z,27.22
2018-06-05T09:42:05.218Z,25.96
2018-06-05T09:44:33.530Z,26.26
2018-06-05T09:47:01.797Z,25.14
2018-06-05T09:49:30.069Z,28.58
2018-06-05T09:51:58.441Z,26.04
2018-06-05T09:54:25.903Z,28.66
2018-06-05T09:56:54.216Z,26.66
2018-06-05T09:59:22.495Z,29.60
2018-06-05T10:01:50.803Z,23.72
2018-06-05T10:04:19.070Z,25.90
2018-06-05T10:06:47.381Z,29.68
2018-06-05T10:09:15.683Z,25.98
2018-06-05T10:11:45.161Z,29.76
2018-06-05T10:14:13.942Z,31.64
2018-06-05T10:16:42.214Z,28.52
2018-06-05T10:19:10.486Z,28.52
2018-06-05T10:21:39.711Z,25.18
2018-06-05T10:24:08.754Z,31.78
2018-06-05T10:26:37.053Z,30.94
2018-06-05T10:29:05.336Z,31.54
2018-06-05T10:31:33.629Z,37.04
2018-06-05T10:34:01.908Z,42.28
2018-06-05T10:36:30.202Z,34.38
2018-06-05T10:38:58.503Z,33.66
2018-06-05T10:41:26.774Z,27.32
2018-06-05T10:43:55.073Z,25.20
2018-06-05T10:46:23.345Z,24.58
2018-06-05T10:48:51.655Z,28.70
2018-06-05T10:51:19.936Z,28.52
2018-06-05T10:53:48.284Z,30.36
2018-06-05T10:56:16.545Z,29.88
2018-06-05T10:58:45.980Z,30.02
2018-06-05T11:01:16.428Z,33.28
2018-06-05T11:03:45.908Z,31.78
2018-06-05T11:06:15.207Z,30.06
2018-06-05T11:08:43.815Z,29.10
2018-06-05T11:11:14.263Z,31.14
2018-06-05T11:13:42.555Z,32.24
2018-06-05T11:16:10.106Z,34.38
2018-06-05T11:18:39.143Z,28.30
2018-06-05T11:21:07.455Z,36.86
2018-06-05T11:23:35.769Z,30.44
2018-06-05T11:26:04.039Z,32.06
2018-06-05T11:28:32.350Z,27.80
2018-06-05T11:31:00.674Z,25.54
2018-06-05T11:33:28.953Z,25.30
2018-06-05T11:35:57.227Z,32.20
2018-06-05T11:38:25.532Z,27.54
2018-06-05T11:40:53.810Z,24.78
2018-06-05T11:43:22.117Z,29.22
2018-06-05T11:45:50.388Z,24.16
2018-06-05T11:48:18.687Z,30.14
2018-06-05T11:50:47.099Z,28.90
2018-06-05T11:53:15.362Z,33.00
2018-06-05T11:55:44.537Z,31.44
2018-06-05T11:58:12.846Z,26.98
2018-06-05T12:00:41.224Z,25.52
2018-06-05T12:03:10.357Z,24.96
2018-06-05T12:05:39.449Z,25.38
2018-06-05T12:08:09.255Z,26.30
2018-06-05T12:10:37.594Z,29.70
2018-06-05T12:13:05.866Z,25.78
2018-06-05T12:15:34.159Z,29.32
2018-06-05T12:18:02.467Z,28.62
2018-06-05T12:20:30.729Z,27.84
2018-06-05T12:22:59.030Z,36.18
2018-06-05T12:25:27.293Z,29.50
2018-06-05T12:27:55.573Z,26.14
2018-06-05T12:30:23.875Z,27.74
2018-06-05T12:32:52.152Z,25.20
2018-06-05T12:35:20.458Z,24.40
2018-06-05T12:37:48.729Z,22.96
2018-06-05T12:40:17.026Z,26.02
2018-06-05T12:42:45.795Z,29.18
2018-06-05T12:45:15.048Z,26.22
2018-06-05T12:47:43.889Z,27.54
2018-06-05T12:50:12.196Z,26.76
2018-06-05T12:52:40.472Z,27.54
2018-06-05T12:55:09.778Z,31.30
2018-06-05T12:57:38.081Z,29.02
2018-06-05T13:00:07.258Z,35.32
2018-06-05T13:02:35.572Z,29.26
2018-06-05T13:05:03.856Z,28.22
2018-06-05T13:07:32.129Z,26.54
2018-06-05T13:10:00.453Z,31.42
2018-06-05T13:12:28.734Z,28.38
2018-06-05T13:14:57.009Z,32.60
2018-06-05T13:17:25.318Z,34.10
2018-06-05T13:19:53.635Z,28.46
2018-06-05T13:22:21.935Z,25.38
2018-06-05T13:24:50.228Z,24.96
2018-06-05T13:27:18.529Z,28.02
2018-06-05T13:29:46.818Z,28.54
2018-06-05T13:32:16.326Z,29.88
2018-06-05T13:34:45.286Z,33.30
2018-06-05T13:37:14.185Z,26.28
2018-06-05T13:39:42.479Z,29.46
2018-06-05T13:42:10.796Z,27.04
2018-06-05T13:44:39.066Z,26.86
2018-06-05T13:47:07.341Z,33.14
2018-06-05T13:49:35.648Z,27.02
2018-06-05T13:52:03.922Z,26.00
2018-06-05T13:54:35.341Z,26.90
2018-06-05T13:57:03.624Z,27.98
2018-06-05T13:59:31.929Z,27.08
2018-06-05T14:02:00.207Z,29.42
2018-06-05T14:04:28.505Z,27.26
2018-06-05T14:06:56.793Z,27.94
2018-06-05T14:09:25.105Z,31.78
2018-06-05T14:11:53.366Z,27.52
2018-06-05T14:14:21.641Z,27.18
2018-06-05T14:16:49.908Z,30.64
2018-06-05T14:19:18.209Z,27.20
2018-06-05T14:21:46.478Z,26.08
2018-06-05T14:24:15.943Z,27.26
2018-06-05T14:26:45.078Z,27.82
2018-06-05T14:29:13.409Z,29.76
2018-06-05T14:31:41.689Z,27.86
2018-06-05T14:34:10.003Z,27.50
2018-06-05T14:36:39.313Z,33.80
2018-06-05T14:39:07.631Z,26.26
2018-06-05T14:41:35.939Z,25.38
2018-06-05T14:44:04.268Z,28.64
2018-06-05T14:46:32.554Z,27.18
2018-06-05T14:49:00.852Z,26.76
2018-06-05T14:51:29.186Z,28.30
2018-06-05T14:53:57.486Z,28.08
2018-06-05T14:56:25.758Z,26.34
2018-06-05T14:58:54.058Z,30.06
2018-06-05T15:01:22.349Z,23.44
2018-06-05T15:03:50.653Z,28.22
2018-06-05T15:06:19.030Z,25.54
2018-06-05T15:08:47.341Z,30.40
2018-06-05T15:11:15.622Z,26.10
2018-06-05T15:13:43.967Z,25.38
2018-06-05T15:16:12.274Z,26.16
2018-06-05T15:18:40.592Z,34.36
2018-06-05T15:21:08.915Z,25.88
2018-06-05T15:23:37.221Z,26.32
2018-06-05T15:26:05.530Z,26.78
2018-06-05T15:28:33.838Z,25.86
2018-06-05T15:31:02.121Z,24.70
2018-06-05T15:33:30.440Z,28.20
2018-06-05T15:35:59.613Z,27.70
2018-06-05T15:38:27.911Z,26.12
2018-06-05T15:40:56.232Z,28.68
2018-06-05T15:43:24.525Z,27.64
2018-06-05T15:45:52.832Z,25.22
2018-06-05T15:48:21.112Z,29.06
2018-06-05T15:50:49.409Z,26.42
2018-06-05T15:53:17.676Z,24.46
2018-06-05T15:55:45.982Z,27.16
2018-06-05T15:58:14.767Z,29.10
2018-06-05T16:00:43.043Z,28.08
2018-06-05T16:03:11.348Z,25.92
2018-06-05T16:05:39.750Z,27.22
2018-06-05T16:08:08.018Z,26.22
2018-06-05T16:10:36.328Z,28.26
2018-06-05T16:13:04.607Z,29.86
2018-06-05T16:15:32.926Z,25.34
2018-06-05T16:18:01.220Z,28.12
2018-06-05T16:20:29.892Z,28.40
2018-06-05T16:22:58.193Z,23.88
2018-06-05T16:25:26.466Z,27.20
2018-06-05T16:27:54.761Z,26.64
2018-06-05T16:30:23.036Z,25.34
2018-06-05T16:32:51.351Z,26.38
2018-06-05T16:35:19.639Z,24.66
2018-06-05T16:37:47.930Z,25.12
2018-06-05T16:40:16.567Z,24.52
2018-06-05T16:42:46.048Z,32.36
2018-06-05T16:45:15.210Z,27.60
2018-06-05T16:47:43.914Z,26.50
2018-06-05T16:50:12.217Z,24.12
2018-06-05T16:52:44.352Z,30.44
2018-06-05T16:55:12.653Z,25.56
2018-06-05T16:57:40.931Z,27.46
2018-06-05T17:00:09.953Z,26.96
2018-06-05T17:02:39.206Z,27.40
2018-06-05T17:05:07.503Z,30.74
2018-06-05T17:07:41.780Z,26.88
2018-06-05T17:10:10.093Z,30.32
2018-06-05T17:12:39.414Z,29.30
2018-06-05T17:15:07.718Z,36.16
2018-06-05T17:17:57.147Z,27.28
2018-06-05T17:20:25.453Z,32.34
2018-06-05T17:22:57.221Z,26.38
2018-06-05T17:25:25.539Z,28.98
2018-06-05T17:27:57.404Z,29.44
2018-06-05T17:30:25.705Z,26.26
2018-06-05T17:33:01.173Z,28.78
2018-06-05T17:35:29.451Z,33.42
2018-06-05T17:38:09.996Z,36.56
2018-06-05T17:40:39.350Z,28.56
2018-06-05T17:43:10.808Z,32.54
2018-06-05T17:45:39.488Z,28.24
2018-06-05T17:48:29.720Z,30.78
2018-06-05T17:50:57.996Z,31.40
2018-06-05T17:53:32.158Z,31.78
2018-06-05T17:56:00.425Z,30.90
2018-06-05T17:58:35.199Z,31.58
2018-06-05T18:01:03.488Z,27.56
2018-06-05T18:03:42.365Z,29.68
2018-06-05T18:06:10.647Z,31.58
2018-06-05T18:08:44.828Z,25.56
2018-06-05T18:11:13.131Z,29.28
2018-06-05T18:13:41.442Z,31.96
2018-06-05T18:16:11.709Z,24.84
2018-06-05T18:18:40.475Z,27.20
2018-06-05T18:21:30.629Z,25.60
2018-06-05T18:23:58.911Z,27.12
2018-06-05T18:26:27.281Z,28.78
2018-06-05T18:28:55.597Z,25.88
2018-06-05T18:31:23.875Z,25.28
2018-06-05T18:33:52.264Z,32.80
2018-06-05T18:36:20.565Z,24.56
2018-06-05T18:38:52.268Z,28.58
2018-06-05T18:41:20.539Z,28.50
2018-06-05T18:44:03.880Z,25.88
2018-06-05T18:46:32.183Z,30.90
2018-06-05T18:49:01.478Z,32.94
2018-06-05T18:51:29.754Z,27.10
2018-06-05T18:56:51.179Z,27.88
2018-06-05T18:59:19.466Z,31.10
2018-06-05T19:01:51.957Z,27.10
2018-06-05T19:04:20.272Z,28.12
2018-06-05T19:06:52.152Z,26.62
2018-06-05T19:09:20.496Z,27.70
2018-06-05T19:11:47.993Z,29.98
2018-06-05T19:14:16.283Z,26.30
2018-06-05T19:16:58.060Z,27.32
2018-06-05T19:19:26.342Z,28.16
2018-06-05T19:21:56.545Z,29.72
2018-06-05T19:24:24.857Z,28.74
2018-06-05T19:26:58.377Z,29.12
2018-06-05T19:29:26.763Z,31.52
2018-06-05T19:31:55.039Z,29.14
2018-06-05T19:34:23.330Z,25.34
2018-06-05T19:36:58.739Z,27.88
2018-06-05T19:39:27.006Z,34.64
2018-06-05T19:42:07.743Z,29.80
2018-06-05T19:44:36.108Z,27.54
2018-06-05T19:47:06.377Z,27.46
2018-06-05T19:49:34.655Z,28.24
2018-06-05T19:52:08.490Z,33.00
2018-06-05T19:54:36.773Z,26.90
2018-06-05T19:57:15.529Z,28.04
2018-06-05T19:59:44.781Z,27.92
2018-06-05T20:02:13.090Z,27.42
2018-06-05T20:04:41.389Z,27.64
2018-06-05T20:07:10.621Z,28.04
2018-06-05T20:09:38.899Z,29.64
2018-06-05T20:12:07.220Z,28.94
2018-06-05T20:14:35.504Z,26.46
2018-06-05T20:17:05.763Z,33.60
2018-06-05T20:19:38.623Z,34.96
2018-06-05T20:22:06.897Z,27.14
2018-06-05T20:24:35.202Z,29.76
2018-06-05T20:27:03.479Z,32.30
2018-06-05T20:29:31.786Z,35.66
2018-06-05T20:32:00.058Z,31.52
2018-06-05T20:34:33.449Z,31.46
2018-06-05T20:37:01.724Z,31.42
2018-06-05T20:39:30.007Z,32.28
2018-06-05T20:41:58.321Z,35.78
2018-06-05T20:44:26.596Z,34.74
2018-06-05T20:46:54.866Z,29.94
2018-06-05T20:49:23.184Z,33.66
2018-06-05T20:51:52.454Z,33.36
2018-06-05T20:54:20.784Z,35.06
2018-06-05T20:56:51.016Z,36.40
2018-06-05T20:59:19.313Z,32.42
2018-06-05T21:01:49.628Z,30.26
2018-06-05T21:04:17.907Z,32.34
2018-06-05T21:06:56.739Z,34.88
2018-06-05T21:09:25.006Z,35.00
2018-06-05T21:11:59.896Z,35.68
2018-06-05T21:14:28.189Z,36.42
2018-06-05T21:16:56.458Z,32.38
2018-06-05T21:19:24.769Z,35.88
2018-06-05T21:21:53.069Z,39.60
2018-06-05T21:24:21.366Z,33.18
2018-06-05T21:26:49.628Z,36.66
2018-06-05T21:29:17.985Z,39.00
2018-06-05T21:31:50.809Z,32.90
2018-06-05T21:34:19.120Z,35.28
2018-06-05T21:36:47.434Z,35.52
2018-06-05T21:39:16.175Z,33.56
2018-06-05T21:41:44.451Z,34.92
2018-06-05T21:44:12.763Z,36.82
2018-06-05T21:46:50.943Z,34.30
2018-06-05T21:49:19.241Z,38.24
2018-06-05T21:51:59.275Z,32.04
2018-06-05T21:54:27.569Z,36.42
2018-06-05T21:56:59.790Z,44.92
2018-06-05T21:59:28.103Z,36.86
2018-06-05T22:01:57.286Z,45.06
2018-06-05T22:04:25.546Z,40.48
2018-06-05T22:06:54.846Z,46.14
2018-06-05T22:09:23.124Z,42.92
2018-06-05T22:11:58.812Z,38.62
2018-06-05T22:14:26.310Z,40.16
2018-06-05T22:16:54.577Z,36.86
2018-06-05T22:19:22.888Z,37.64
2018-06-05T22:21:53.137Z,42.22
2018-06-05T22:24:21.467Z,40.42
2018-06-05T22:26:49.734Z,36.30
2018-06-05T22:29:18.655Z,39.48
2018-06-05T22:31:48.943Z,36.96
2018-06-05T22:34:17.254Z,41.52
2018-06-05T22:36:49.601Z,40.68
2018-06-05T22:39:17.902Z,40.88
2018-06-05T22:41:46.206Z,39.08
2018-06-05T22:44:14.500Z,43.24
2018-06-05T22:46:45.697Z,39.08
2018-06-05T22:49:14.057Z,41.44
2018-06-05T22:51:43.311Z,43.10
2018-06-05T22:54:12.274Z,37.20
2018-06-05T22:56:40.561Z,40.10
2018-06-05T22:59:09.852Z,40.54
2018-06-05T23:01:39.443Z,39.80
2018-06-05T23:04:09.400Z,52.14
2018-06-05T23:06:39.659Z,42.88
2018-06-05T23:09:08.786Z,39.94
2018-06-05T23:11:43.187Z,43.18
2018-06-05T23:14:10.681Z,40.32
2018-06-05T23:16:39.001Z,40.04
2018-06-05T23:19:07.283Z,38.76
2018-06-05T23:21:35.586Z,40.26
2018-06-05T23:24:03.891Z,40.94
2018-06-05T23:26:32.162Z,36.70
2018-06-05T23:29:00.475Z,39.52
2018-06-05T23:31:39.036Z,40.30
2018-06-05T23:34:07.314Z,35.52
2018-06-05T23:36:59.444Z,40.72
2018-06-05T23:39:27.728Z,35.28
2018-06-05T23:41:59.614Z,42.26
2018-06-05T23:44:27.123Z,41.06
2018-06-05T23:47:02.317Z,38.86
2018-06-05T23:49:30.625Z,36.00
2018-06-05T23:52:00.891Z,33.86
2018-06-05T23:54:29.199Z,42.94
2018-06-05T23:57:07.571Z,39.48
2018-06-05T23:59:35.877Z,38.20
